createdAt,value
2017-10-15T00:01:53.833Z,42.78
2017-10-15T00:04:22.603Z,32.05
2017-10-15T00:06:50.647Z,32.85
2017-10-15T00:09:18.425Z,33.75
2017-10-15T00:11:46.944Z,37.10
2017-10-15T00:14:15.632Z,33.80
2017-10-15T00:16:45.910Z,32.00
2017-10-15T00:19:15.213Z,33.72
2017-10-15T00:21:43.376Z,31.95
2017-10-15T00:24:13.265Z,33.13
2017-10-15T00:26:42.128Z,35.17
2017-10-15T00:29:10.014Z,33.22
2017-10-15T00:31:38.866Z,30.75
2017-10-15T00:34:07.106Z,37.92
2017-10-15T00:36:34.597Z,30.10
2017-10-15T00:39:02.090Z,30.10
2017-10-15T00:41:29.551Z,30.62
2017-10-15T00:43:57.033Z,29.55
2017-10-15T00:46:24.496Z,38.70
2017-10-15T00:48:51.978Z,28.12
2017-10-15T00:51:19.441Z,31.45
2017-10-15T00:53:46.895Z,28.00
2017-10-15T00:56:14.351Z,29.27
2017-10-15T00:58:41.806Z,29.05
2017-10-15T01:01:10.051Z,29.33
2017-10-15T01:03:37.510Z,33.85
2017-10-15T01:06:04.974Z,35.30
2017-10-15T01:08:32.438Z,33.88
2017-10-15T01:10:59.927Z,37.92
2017-10-15T01:13:27.398Z,35.50
2017-10-15T01:15:54.895Z,36.05
2017-10-15T01:18:22.390Z,35.63
2017-10-15T01:20:49.844Z,31.20
2017-10-15T01:23:17.314Z,39.17
2017-10-15T01:25:44.791Z,39.15
2017-10-15T01:28:12.251Z,46.00
2017-10-15T01:30:39.719Z,44.53
2017-10-15T01:33:07.176Z,41.83
2017-10-15T01:35:34.675Z,50.15
2017-10-15T01:38:02.161Z,45.12
2017-10-15T01:40:29.613Z,46.45
2017-10-15T01:42:57.071Z,52.50
2017-10-15T01:45:24.570Z,49.05
2017-10-15T01:47:52.043Z,52.47
2017-10-15T01:50:19.512Z,55.08
2017-10-15T01:52:46.981Z,61.37
2017-10-15T01:55:15.210Z,62.85
2017-10-15T01:57:42.667Z,60.33
2017-10-15T02:00:10.115Z,58.53
2017-10-15T02:02:37.606Z,57.60
2017-10-15T02:05:05.061Z,59.38
2017-10-15T02:07:32.546Z,58.85
2017-10-15T02:09:59.999Z,64.55
2017-10-15T02:12:28.260Z,56.60
2017-10-15T02:14:56.491Z,57.70
2017-10-15T02:17:23.954Z,66.22
2017-10-15T02:19:51.416Z,68.93
2017-10-15T02:22:18.879Z,60.70
2017-10-15T02:24:46.339Z,65.53
2017-10-15T02:27:13.822Z,66.87
2017-10-15T02:29:41.308Z,64.82
2017-10-15T02:32:09.526Z,73.00
2017-10-15T02:34:36.995Z,69.18
2017-10-15T02:37:04.463Z,65.97
2017-10-15T02:39:31.949Z,60.97
2017-10-15T02:42:00.179Z,63.87
2017-10-15T02:44:27.655Z,54.15
2017-10-15T02:46:55.121Z,63.45
2017-10-15T02:49:22.573Z,64.45
2017-10-15T02:51:50.031Z,61.83
2017-10-15T02:54:17.496Z,63.75
2017-10-15T02:56:45.731Z,69.40
2017-10-15T02:59:13.197Z,68.93
2017-10-15T03:01:40.651Z,69.43
2017-10-15T03:04:08.116Z,66.15
2017-10-15T03:06:35.571Z,69.75
2017-10-15T03:09:03.043Z,70.68
2017-10-15T03:11:30.511Z,71.03
2017-10-15T03:13:58.734Z,61.72
2017-10-15T03:16:26.203Z,69.82
2017-10-15T03:18:53.698Z,68.68
2017-10-15T03:21:21.171Z,68.55
2017-10-15T03:23:49.411Z,69.75
2017-10-15T03:26:16.891Z,71.05
2017-10-15T03:28:44.355Z,69.37
2017-10-15T03:31:11.872Z,74.85
2017-10-15T03:33:39.351Z,70.28
2017-10-15T03:36:06.812Z,77.93
2017-10-15T03:38:34.265Z,68.43
2017-10-15T03:41:01.734Z,62.97
2017-10-15T03:43:29.208Z,67.40
2017-10-15T03:45:56.767Z,75.35
2017-10-15T03:48:24.218Z,75.40
2017-10-15T03:50:51.693Z,69.53
2017-10-15T03:53:19.152Z,75.18
2017-10-15T03:55:46.651Z,65.97
2017-10-15T03:58:14.730Z,64.32
2017-10-15T04:00:42.207Z,67.28
2017-10-15T04:03:10.455Z,68.12
2017-10-15T04:05:37.943Z,65.55
2017-10-15T04:08:06.201Z,64.75
2017-10-15T04:10:33.678Z,70.15
2017-10-15T04:13:01.956Z,62.28
2017-10-15T04:15:29.435Z,63.72
2017-10-15T04:17:59.343Z,74.28
2017-10-15T04:20:26.932Z,67.55
2017-10-15T04:22:54.429Z,72.70
2017-10-15T04:25:21.902Z,65.70
2017-10-15T04:27:49.368Z,70.87
2017-10-15T04:30:16.828Z,65.95
2017-10-15T04:32:44.312Z,69.05
2017-10-15T04:35:11.787Z,67.57
2017-10-15T04:37:39.286Z,68.82
2017-10-15T04:40:06.762Z,59.58
2017-10-15T04:42:34.249Z,64.03
2017-10-15T04:45:01.747Z,58.15
2017-10-15T04:47:29.218Z,64.12
2017-10-15T04:49:56.753Z,67.47
2017-10-15T04:52:24.232Z,61.75
2017-10-15T04:54:52.488Z,70.55
2017-10-15T04:57:19.970Z,60.33
2017-10-15T04:59:47.433Z,60.22
2017-10-15T05:02:15.183Z,61.58
2017-10-15T05:04:42.647Z,65.90
2017-10-15T05:07:10.115Z,66.32
2017-10-15T05:09:37.619Z,63.00
2017-10-15T05:12:05.102Z,79.37
2017-10-15T05:14:33.371Z,73.85
2017-10-15T05:17:00.844Z,81.07
2017-10-15T05:19:28.354Z,79.00
2017-10-15T05:21:55.838Z,67.47
2017-10-15T05:24:23.318Z,70.95
2017-10-15T05:26:50.786Z,86.07
2017-10-15T05:29:18.242Z,71.15
2017-10-15T05:31:45.713Z,67.70
2017-10-15T05:34:13.191Z,63.65
2017-10-15T05:36:40.658Z,63.35
2017-10-15T05:39:08.204Z,62.08
2017-10-15T05:41:35.688Z,59.40
2017-10-15T05:44:03.166Z,68.43
2017-10-15T05:46:31.423Z,67.15
2017-10-15T05:48:58.916Z,71.55
2017-10-15T05:51:26.445Z,64.28
2017-10-15T05:53:53.924Z,75.55
2017-10-15T05:56:21.386Z,65.40
2017-10-15T05:58:48.890Z,64.43
2017-10-15T06:01:16.386Z,71.40
2017-10-15T06:03:44.647Z,69.07
2017-10-15T06:06:12.143Z,78.20
2017-10-15T06:08:39.650Z,67.43
2017-10-15T06:11:07.160Z,71.12
2017-10-15T06:13:34.657Z,55.55
2017-10-15T06:16:02.155Z,54.47
2017-10-15T06:18:30.474Z,49.00
2017-10-15T06:20:57.950Z,42.58
2017-10-15T06:23:25.438Z,44.92
2017-10-15T06:25:52.909Z,49.70
2017-10-15T06:28:21.186Z,44.10
2017-10-15T06:30:49.634Z,48.60
2017-10-15T06:33:17.122Z,48.30
2017-10-15T06:35:44.587Z,53.05
2017-10-15T06:38:12.055Z,52.17
2017-10-15T06:40:39.510Z,44.65
2017-10-15T06:43:07.061Z,49.75
2017-10-15T06:45:34.595Z,48.25
2017-10-15T06:48:02.892Z,51.37
2017-10-15T06:50:30.363Z,62.00
2017-10-15T06:52:57.823Z,54.00
2017-10-15T06:55:25.322Z,54.72
2017-10-15T06:57:52.818Z,53.35
2017-10-15T07:00:20.286Z,54.67
2017-10-15T07:02:47.767Z,56.20
2017-10-15T07:05:15.263Z,58.05
2017-10-15T07:07:42.778Z,63.75
2017-10-15T07:10:10.421Z,65.60
2017-10-15T07:12:37.977Z,63.33
2017-10-15T07:15:05.514Z,68.72
2017-10-15T07:17:33.092Z,66.32
2017-10-15T07:20:00.631Z,63.15
2017-10-15T07:22:28.115Z,68.70
2017-10-15T07:24:55.658Z,63.60
2017-10-15T07:27:23.297Z,67.65
2017-10-15T07:29:50.775Z,64.53
2017-10-15T07:32:18.345Z,67.40
2017-10-15T07:34:45.806Z,64.07
2017-10-15T07:37:13.359Z,60.00
2017-10-15T07:39:40.918Z,60.80
2017-10-15T07:42:08.485Z,62.62
2017-10-15T07:44:36.039Z,58.95
2017-10-15T07:47:03.571Z,56.72
2017-10-15T07:49:31.058Z,57.72
2017-10-15T07:51:58.618Z,53.25
2017-10-15T07:54:26.158Z,56.40
2017-10-15T07:56:53.719Z,58.10
2017-10-15T07:59:21.287Z,55.92
2017-10-15T08:01:48.855Z,57.60
2017-10-15T08:04:16.430Z,59.58
2017-10-15T08:06:43.972Z,55.15
2017-10-15T08:09:11.527Z,54.63
2017-10-15T08:11:39.182Z,53.55
2017-10-15T08:14:06.762Z,55.12
2017-10-15T08:16:34.314Z,57.90
2017-10-15T08:19:01.930Z,65.70
2017-10-15T08:21:29.434Z,53.08
2017-10-15T08:23:56.959Z,54.13
2017-10-15T08:26:24.442Z,49.30
2017-10-15T08:28:52.003Z,50.78
2017-10-15T08:31:19.668Z,47.60
2017-10-15T08:33:47.232Z,49.65
2017-10-15T08:36:14.784Z,49.15
2017-10-15T08:38:42.332Z,50.12
2017-10-15T08:41:09.839Z,54.42
2017-10-15T08:43:37.349Z,56.13
2017-10-15T08:46:04.810Z,57.45
2017-10-15T08:48:32.289Z,56.58
2017-10-15T08:50:59.742Z,56.22
2017-10-15T08:53:27.243Z,54.72
2017-10-15T08:55:54.743Z,55.92
2017-10-15T08:58:22.275Z,56.65
2017-10-15T09:00:49.760Z,52.05
2017-10-15T09:03:17.322Z,58.65
2017-10-15T09:05:44.782Z,59.13
2017-10-15T09:08:12.322Z,55.95
2017-10-15T09:10:40.309Z,59.67
2017-10-15T09:13:08.272Z,52.38
2017-10-15T09:15:35.807Z,47.28
2017-10-15T09:18:03.295Z,46.53
2017-10-15T09:20:30.833Z,50.33
2017-10-15T09:22:58.655Z,48.45
2017-10-15T09:25:26.164Z,55.22
2017-10-15T09:27:53.722Z,52.25
2017-10-15T09:30:21.269Z,50.80
2017-10-15T09:32:49.568Z,44.30
2017-10-15T09:35:17.100Z,45.35
2017-10-15T09:37:44.575Z,46.83
2017-10-15T09:40:12.118Z,44.17
2017-10-15T09:42:40.401Z,43.22
2017-10-15T09:45:07.972Z,41.35
2017-10-15T09:47:35.531Z,40.50
2017-10-15T09:50:03.070Z,39.70
2017-10-15T09:52:30.550Z,43.30
2017-10-15T09:54:58.047Z,41.20
2017-10-15T09:57:25.542Z,43.63
2017-10-15T09:59:53.104Z,36.30
2017-10-15T10:02:20.694Z,40.35
2017-10-15T10:04:48.185Z,40.70
2017-10-15T10:07:15.783Z,43.00
2017-10-15T10:09:43.307Z,33.25
2017-10-15T10:12:10.796Z,39.67
2017-10-15T10:14:38.560Z,45.90
2017-10-15T10:17:06.196Z,37.70
2017-10-15T10:19:33.701Z,42.28
2017-10-15T10:22:01.242Z,39.10
2017-10-15T10:24:28.820Z,41.10
2017-10-15T10:26:56.841Z,35.15
2017-10-15T10:29:24.412Z,41.03
2017-10-15T10:31:52.015Z,38.85
2017-10-15T10:34:19.535Z,36.05
2017-10-15T10:36:47.028Z,34.63
2017-10-15T10:39:14.562Z,36.63
2017-10-15T10:41:42.854Z,36.63
2017-10-15T10:44:10.602Z,35.77
2017-10-15T10:46:38.186Z,33.57
2017-10-15T10:49:05.689Z,33.73
2017-10-15T10:51:33.202Z,42.33
2017-10-15T10:54:00.663Z,44.33
2017-10-15T10:56:28.183Z,36.78
2017-10-15T10:58:55.763Z,35.10
2017-10-15T11:01:23.316Z,35.33
2017-10-15T11:03:50.858Z,37.63
2017-10-15T11:06:18.352Z,38.03
2017-10-15T11:08:45.876Z,36.57
2017-10-15T11:11:13.364Z,39.33
2017-10-15T11:13:41.211Z,33.87
2017-10-15T11:16:08.902Z,33.73
2017-10-15T11:18:36.408Z,28.40
2017-10-15T11:21:03.899Z,30.67
2017-10-15T11:23:31.376Z,31.40
2017-10-15T11:25:58.891Z,28.70
2017-10-15T11:28:26.486Z,25.57
2017-10-15T11:30:54.042Z,29.73
2017-10-15T11:33:21.698Z,23.13
2017-10-15T11:35:49.314Z,26.67
2017-10-15T11:38:16.827Z,23.23
2017-10-15T11:40:44.391Z,23.80
2017-10-15T11:43:12.024Z,21.57
2017-10-15T11:45:39.613Z,22.43
2017-10-15T11:48:07.148Z,21.77
2017-10-15T11:50:34.682Z,21.87
2017-10-15T11:53:02.163Z,21.83
2017-10-15T11:55:29.631Z,18.53
2017-10-15T11:57:57.099Z,17.10
2017-10-15T12:00:24.559Z,15.17
2017-10-15T12:02:52.020Z,15.77
2017-10-15T12:05:19.543Z,16.00
2017-10-15T12:07:47.831Z,15.80
2017-10-15T12:10:15.325Z,17.60
2017-10-15T12:12:43.019Z,14.57
2017-10-15T12:15:10.496Z,12.87
2017-10-15T12:17:37.970Z,13.60
2017-10-15T12:20:05.438Z,11.53
2017-10-15T12:22:32.919Z,15.20
2017-10-15T12:25:00.418Z,11.90
2017-10-15T12:27:27.882Z,10.83
2017-10-15T12:29:56.162Z,10.40
2017-10-15T12:32:23.737Z,11.30
2017-10-15T12:34:51.263Z,10.40
2017-10-15T12:37:18.739Z,9.13
2017-10-15T12:39:46.226Z,8.60
2017-10-15T12:42:13.776Z,8.50
2017-10-15T12:44:41.303Z,9.17
2017-10-15T12:47:08.796Z,9.23
2017-10-15T12:49:36.337Z,15.03
2017-10-15T12:52:03.896Z,14.47
2017-10-15T12:54:32.286Z,7.13
2017-10-15T12:56:59.947Z,8.53
2017-10-15T12:59:27.499Z,6.53
2017-10-15T13:01:55.072Z,6.83
2017-10-15T13:04:22.579Z,6.47
2017-10-15T13:06:50.085Z,7.27
2017-10-15T13:09:17.536Z,6.03
2017-10-15T13:11:45.063Z,5.40
2017-10-15T13:14:12.555Z,5.10
2017-10-15T13:16:40.097Z,6.30
2017-10-15T13:19:07.679Z,4.53
2017-10-15T13:21:35.292Z,5.20
2017-10-15T13:24:02.850Z,4.57
2017-10-15T13:26:30.342Z,4.40
2017-10-15T13:28:57.920Z,4.53
2017-10-15T13:31:25.406Z,4.07
2017-10-15T13:33:52.954Z,4.53
2017-10-15T13:36:20.484Z,6.50
2017-10-15T13:38:47.991Z,4.80
2017-10-15T13:41:15.608Z,3.70
2017-10-15T13:43:43.254Z,4.50
2017-10-15T13:46:10.822Z,4.53
2017-10-15T13:48:38.374Z,4.40
2017-10-15T13:51:05.862Z,4.30
2017-10-15T13:53:33.380Z,4.43
2017-10-15T13:56:00.954Z,4.10
2017-10-15T13:58:28.617Z,5.17
2017-10-15T14:00:56.168Z,4.70
2017-10-15T14:03:23.707Z,3.93
2017-10-15T14:05:51.195Z,5.10
2017-10-15T14:08:18.746Z,4.33
2017-10-15T14:10:46.258Z,4.37
2017-10-15T14:13:14.795Z,4.40
2017-10-15T14:15:42.355Z,5.10
2017-10-15T14:18:09.907Z,4.00
2017-10-15T14:20:37.466Z,3.90
2017-10-15T14:23:04.932Z,4.80
2017-10-15T14:25:32.583Z,3.90
2017-10-15T14:28:00.319Z,3.67
2017-10-15T14:30:27.952Z,4.53
2017-10-15T14:32:55.454Z,4.43
2017-10-15T14:35:22.982Z,4.67
2017-10-15T14:37:50.567Z,4.87
2017-10-15T14:40:18.103Z,4.03
2017-10-15T14:42:45.583Z,4.07
2017-10-15T14:45:13.155Z,3.70
2017-10-15T14:47:40.696Z,4.23
2017-10-15T14:50:08.246Z,4.43
2017-10-15T14:52:35.733Z,4.67
2017-10-15T14:55:03.239Z,5.40
2017-10-15T14:57:30.755Z,4.70
2017-10-15T14:59:58.315Z,4.00
2017-10-15T15:02:25.770Z,3.93
2017-10-15T15:04:53.338Z,4.10
2017-10-15T15:07:21.001Z,4.40
2017-10-15T15:09:48.603Z,3.70
2017-10-15T15:12:16.214Z,4.67
2017-10-15T15:14:43.867Z,3.70
2017-10-15T15:17:11.440Z,4.47
2017-10-15T15:19:38.978Z,4.00
2017-10-15T15:22:06.551Z,4.90
2017-10-15T15:24:36.236Z,5.07
2017-10-15T15:27:05.524Z,5.47
2017-10-15T15:29:33.307Z,5.43
2017-10-15T15:32:00.957Z,5.30
2017-10-15T15:34:29.464Z,5.37
2017-10-15T15:36:57.077Z,5.00
2017-10-15T15:39:24.580Z,4.80
2017-10-15T15:41:52.236Z,4.93
2017-10-15T15:44:19.781Z,7.47
2017-10-15T15:46:47.331Z,8.30
2017-10-15T15:49:14.888Z,6.17
2017-10-15T15:51:42.771Z,5.83
2017-10-15T15:54:10.440Z,7.03
2017-10-15T15:56:37.908Z,6.47
2017-10-15T15:59:05.457Z,7.07
2017-10-15T16:01:32.975Z,7.60
2017-10-15T16:04:00.452Z,7.07
2017-10-15T16:06:28.056Z,7.37
2017-10-15T16:08:55.576Z,8.77
2017-10-15T16:11:23.062Z,7.30
2017-10-15T16:13:51.311Z,8.00
2017-10-15T16:16:18.834Z,9.00
2017-10-15T16:18:46.383Z,8.57
2017-10-15T16:21:13.863Z,8.07
2017-10-15T16:23:41.346Z,9.17
2017-10-15T16:26:09.630Z,8.07
2017-10-15T16:28:37.183Z,7.70
2017-10-15T16:31:04.655Z,9.00
2017-10-15T16:33:32.206Z,8.20
2017-10-15T16:35:59.717Z,7.90
2017-10-15T16:38:27.215Z,7.57
2017-10-15T16:40:54.695Z,7.70
2017-10-15T16:43:22.255Z,7.50
2017-10-15T16:45:50.002Z,7.60
2017-10-15T16:48:17.564Z,7.47
2017-10-15T16:50:45.115Z,7.87
2017-10-15T16:53:12.627Z,9.10
2017-10-15T16:55:40.144Z,8.20
2017-10-15T16:58:07.658Z,8.70
2017-10-15T17:00:35.208Z,8.05
2017-10-15T17:03:02.756Z,8.53
2017-10-15T17:05:30.266Z,8.23
2017-10-15T17:07:57.769Z,8.13
2017-10-15T17:10:25.279Z,8.20
2017-10-15T17:12:52.822Z,9.05
2017-10-15T17:15:20.962Z,9.98
2017-10-15T17:17:48.463Z,9.93
2017-10-15T17:20:16.742Z,11.25
2017-10-15T17:22:44.259Z,11.00
2017-10-15T17:25:11.754Z,9.27
2017-10-15T17:27:39.219Z,9.05
2017-10-15T17:30:06.790Z,11.30
2017-10-15T17:32:34.331Z,10.60
2017-10-15T17:35:01.814Z,12.05
2017-10-15T17:37:29.347Z,12.57
2017-10-15T17:39:57.626Z,15.63
2017-10-15T17:42:25.111Z,14.27
2017-10-15T17:44:53.384Z,14.45
2017-10-15T17:47:20.922Z,14.73
2017-10-15T17:49:59.038Z,14.60
2017-10-15T17:52:26.584Z,15.00
2017-10-15T17:54:54.143Z,14.57
2017-10-15T17:57:22.111Z,15.45
2017-10-15T17:59:49.694Z,15.30
2017-10-15T18:02:29.127Z,15.40
2017-10-15T18:04:56.683Z,14.73
2017-10-15T18:07:24.523Z,14.38
2017-10-15T18:09:52.011Z,14.68
2017-10-15T18:12:19.717Z,13.95
2017-10-15T18:14:47.516Z,13.23
2017-10-15T18:17:15.151Z,15.35
2017-10-15T18:19:42.635Z,14.35
2017-10-15T18:22:10.215Z,15.48
2017-10-15T18:24:37.771Z,14.48
2017-10-15T18:27:05.324Z,13.65
2017-10-15T18:29:32.857Z,14.57
2017-10-15T18:32:00.332Z,14.27
2017-10-15T18:34:27.975Z,13.38
2017-10-15T18:36:55.677Z,13.25
2017-10-15T18:39:23.383Z,13.32
2017-10-15T18:41:50.886Z,13.70
2017-10-15T18:44:18.422Z,14.85
2017-10-15T18:46:45.903Z,13.02
2017-10-15T18:49:13.446Z,14.65
2017-10-15T18:51:40.907Z,13.50
2017-10-15T18:54:09.170Z,13.70
2017-10-15T18:56:36.662Z,14.50
2017-10-15T18:59:04.203Z,13.48
2017-10-15T19:01:31.815Z,13.73
2017-10-15T19:03:59.307Z,15.18
2017-10-15T19:06:26.822Z,15.25
2017-10-15T19:08:54.332Z,16.70
2017-10-15T19:11:22.579Z,15.05
2017-10-15T19:13:50.086Z,14.65
2017-10-15T19:16:17.573Z,15.50
2017-10-15T19:18:45.058Z,15.57
2017-10-15T19:21:12.554Z,14.73
2017-10-15T19:23:40.023Z,15.88
2017-10-15T19:26:07.535Z,16.15
2017-10-15T19:28:35.134Z,17.58
2017-10-15T19:31:02.653Z,15.52
2017-10-15T19:33:30.149Z,15.38
2017-10-15T19:35:57.747Z,15.82
2017-10-15T19:38:25.238Z,14.75
2017-10-15T19:40:52.756Z,14.30
2017-10-15T19:43:20.287Z,14.05
2017-10-15T19:45:47.807Z,14.30
2017-10-15T19:48:15.270Z,13.62
2017-10-15T19:50:42.745Z,12.68
2017-10-15T19:53:10.211Z,13.93
2017-10-15T19:55:37.711Z,14.18
2017-10-15T19:58:05.354Z,13.48
2017-10-15T20:00:32.879Z,11.98
2017-10-15T20:03:01.158Z,13.57
2017-10-15T20:05:28.675Z,12.73
2017-10-15T20:07:56.164Z,13.77
2017-10-15T20:10:24.563Z,13.65
2017-10-15T20:12:52.146Z,14.25
2017-10-15T20:15:19.643Z,12.45
2017-10-15T20:17:47.126Z,11.60
2017-10-15T20:20:14.659Z,13.82
2017-10-15T20:22:42.321Z,12.32
2017-10-15T20:25:09.796Z,13.15
2017-10-15T20:27:38.071Z,13.50
2017-10-15T20:30:06.435Z,12.93
2017-10-15T20:32:33.914Z,13.85
2017-10-15T20:35:01.493Z,13.20
2017-10-15T20:37:29.024Z,12.88
2017-10-15T20:39:56.677Z,14.18
2017-10-15T20:42:24.209Z,13.80
2017-10-15T20:44:51.706Z,14.98
2017-10-15T20:47:19.268Z,13.10
2017-10-15T20:49:46.751Z,11.77
2017-10-15T20:52:14.242Z,14.18
2017-10-15T20:54:41.740Z,14.38
2017-10-15T20:57:09.250Z,13.05
2017-10-15T20:59:36.751Z,14.40
2017-10-15T21:02:04.264Z,14.52
2017-10-15T21:04:31.766Z,13.30
2017-10-15T21:07:00.038Z,13.52
2017-10-15T21:09:27.518Z,12.93
2017-10-15T21:11:55.033Z,12.60
2017-10-15T21:14:22.524Z,13.23
2017-10-15T21:16:50.063Z,13.10
2017-10-15T21:19:17.551Z,12.75
2017-10-15T21:21:45.081Z,15.60
2017-10-15T21:24:12.575Z,13.55
2017-10-15T21:26:40.098Z,14.48
2017-10-15T21:29:07.566Z,14.27
2017-10-15T21:31:35.836Z,14.48
2017-10-15T21:34:03.318Z,16.12
2017-10-15T21:36:30.812Z,16.17
2017-10-15T21:38:58.267Z,13.80
2017-10-15T21:41:25.771Z,14.90
2017-10-15T21:43:53.435Z,14.48
2017-10-15T21:46:21.660Z,13.80
2017-10-15T21:48:49.157Z,13.75
2017-10-15T21:51:16.611Z,14.55
2017-10-15T21:53:44.079Z,13.82
2017-10-15T21:56:12.570Z,14.68
2017-10-15T21:58:40.066Z,14.13
2017-10-15T22:01:07.550Z,14.55
2017-10-15T22:03:35.038Z,13.98
2017-10-15T22:06:03.307Z,14.55
2017-10-15T22:08:30.824Z,15.15
2017-10-15T22:10:58.299Z,16.90
2017-10-15T22:13:25.779Z,14.50
2017-10-15T22:15:53.256Z,15.98
2017-10-15T22:18:26.651Z,16.15
2017-10-15T22:20:59.682Z,15.48
2017-10-15T22:23:27.182Z,15.23
2017-10-15T22:25:54.652Z,14.60
2017-10-15T22:28:22.961Z,14.30
2017-10-15T22:30:50.440Z,18.55
2017-10-15T22:33:17.926Z,16.92
2017-10-15T22:35:45.390Z,17.50
2017-10-15T22:38:12.896Z,16.33
2017-10-15T22:40:40.383Z,15.02
2017-10-15T22:43:07.865Z,16.67
2017-10-15T22:45:35.357Z,15.45
2017-10-15T22:48:02.855Z,16.77
2017-10-15T22:50:30.339Z,15.52
2017-10-15T22:52:57.829Z,16.30
2017-10-15T22:55:25.320Z,15.80
2017-10-15T22:57:52.787Z,17.08
2017-10-15T23:00:20.287Z,16.65
2017-10-15T23:02:47.734Z,14.82
2017-10-15T23:05:15.228Z,18.90
2017-10-15T23:07:42.726Z,19.00
2017-10-15T23:10:10.982Z,19.73
2017-10-15T23:12:38.478Z,17.90
2017-10-15T23:15:06.844Z,17.58
2017-10-15T23:17:34.315Z,16.52
2017-10-15T23:20:01.771Z,15.98
2017-10-15T23:22:29.255Z,15.55
2017-10-15T23:24:56.745Z,16.10
2017-10-15T23:27:24.235Z,18.90
2017-10-15T23:29:52.493Z,17.83
2017-10-15T23:32:19.963Z,16.77
2017-10-15T23:34:47.438Z,19.42
2017-10-15T23:37:14.911Z,16.95
2017-10-15T23:39:42.372Z,18.85
2017-10-15T23:42:09.867Z,17.98
2017-10-15T23:44:37.327Z,19.42
2017-10-15T23:47:04.795Z,23.30
2017-10-15T23:49:33.037Z,17.95
2017-10-15T23:52:00.500Z,17.45
2017-10-15T23:54:28.000Z,18.08
2017-10-15T23:56:55.496Z,18.15
2017-10-15T23:59:22.956Z,16.75
